This is the latest recevied weather packets stored in our database for station/object R2AKT-13. If no packets are shown the sender has not sent any weather packets the latest 10 day(s).
| Time | Temp. | Humidity | Pressure | Rain* | Wind** | Luminosity | Snow |
|---|---|---|---|---|---|---|---|
| 1777726569 | 14.44° C | 41% | 993.3 hPa | - | 1.79 m/s, 171° | - | - |
| 1777726039 | 15° C | 40% | 993.4 hPa | - | 0.89 m/s, 191° | - | - |
| 1777725479 | 13.89° C | 42% | 993.5 hPa | - | 0.45 m/s, 226° | - | - |
| 1777724919 | 13.89° C | 42% | 993.6 hPa | - | 1.34 m/s, 181° | - | - |
| 1777724354 | 13.33° C | 42% | 993.7 hPa | - | 2.24 m/s, 204° | - | - |
| 1777723769 | 14.44° C | 41% | 993.8 hPa | - | 1.79 m/s, 219° | - | - |
| 1777723194 | 13.89° C | 42% | 993.9 hPa | - | 0.45 m/s, 250° | - | - |
| 1777722609 | 13.89° C | 40% | 994 hPa | - | 0.89 m/s, 225° | - | - |
| 1777722124 | 13.89° C | 40% | 994.1 hPa | - | 1.34 m/s, 262° | - | - |
| 1777721574 | 12.78° C | 42% | 994.2 hPa | - | 0.45 m/s, 217° | - | - |
| 1777720979 | 13.33° C | 42% | 994.2 hPa | - | 0.45 m/s, 274° | - | - |
| 1777720479 | 13.33° C | 41% | 994.3 hPa | - | 0 m/s | - | - |
| 1777719959 | 12.78° C | 42% | 994.3 hPa | - | 2.24 m/s, 183° | - | - |
| 1777719434 | 13.33° C | 40% | 994.4 hPa | - | 0.45 m/s, 214° | - | - |
| 1777718909 | 14.44° C | 39% | 994.3 hPa | - | 0.45 m/s, 181° | - | - |
| 1777718334 | 12.22° C | 42% | 994.5 hPa | - | 0.45 m/s, 241° | - | - |
| 1777717749 | 12.78° C | 40% | 994.6 hPa | - | 1.79 m/s, 203° | - | - |
| 1777717160 | 12.22° C | 41% | 994.8 hPa | - | 0.45 m/s, 252° | - | - |
| 1777716649 | 13.33° C | 39% | 994.9 hPa | - | 0 m/s | - | - |
| 1777716059 | 12.22° C | 41% | 995.1 hPa | - | 0 m/s | - | - |
| 1777715544 | 12.22° C | 42% | 995.1 hPa | - | 0.89 m/s, 252° | - | - |
| 1777715009 | 11.67° C | 42% | 995.2 hPa | - | 0.45 m/s, 259° | - | - |
| 1777714519 | 12.22° C | 41% | 995.1 hPa | - | 0.45 m/s, 246° | - | - |
| 1777713999 | 12.78° C | 40% | 995.2 hPa | - | 0.45 m/s, 198° | - | - |
| 1777713519 | 11.67° C | 42% | 995.2 hPa | - | 1.34 m/s, 224° | - | - |
* Rain since midnight (hover to see other rain measurements)
** Current wind speed in m/s (hover to see current wind gust speed)